createdAt,value
2023-03-06T00:01:08.760Z,90.02
2023-03-06T00:03:36.741Z,90.35
2023-03-06T00:06:05.022Z,90.12
2023-03-06T00:08:32.943Z,89.38
2023-03-06T00:11:02.124Z,90.46
2023-03-06T00:13:31.157Z,90.42
2023-03-06T00:16:00.238Z,90.87
2023-03-06T00:18:28.195Z,90.49
2023-03-06T00:20:56.087Z,91.05
2023-03-06T00:23:23.925Z,90.45
2023-03-06T00:25:51.963Z,90.96
2023-03-06T00:28:21.287Z,90.62
2023-03-06T00:30:49.024Z,90.78
2023-03-06T00:33:16.834Z,91.13
2023-03-06T00:35:44.718Z,90.96
2023-03-06T00:38:13.179Z,91.68
2023-03-06T00:40:41.500Z,91.68
2023-03-06T00:43:09.411Z,91.45
2023-03-06T00:45:38.860Z,91.55
2023-03-06T00:48:06.989Z,91.51
2023-03-06T00:50:35.220Z,91.63
2023-03-06T00:53:03.124Z,91.60
2023-03-06T00:55:32.876Z,91.27
2023-03-06T00:58:00.934Z,90.97
2023-03-06T01:00:29.260Z,91.43
2023-03-06T01:02:58.462Z,91.66
2023-03-06T01:05:26.485Z,92.25
2023-03-06T01:07:54.444Z,91.61
2023-03-06T01:10:22.542Z,91.87
2023-03-06T01:12:50.405Z,92.28
2023-03-06T01:15:19.416Z,91.74
2023-03-06T01:17:47.318Z,91.83
2023-03-06T01:20:18.180Z,92.27
2023-03-06T01:22:46.006Z,91.91
2023-03-06T01:25:14.086Z,91.70
2023-03-06T01:27:41.902Z,91.76
2023-03-06T01:30:13.067Z,92.12
2023-03-06T01:32:40.924Z,92.55
2023-03-06T01:35:09.430Z,92.25
2023-03-06T01:37:38.954Z,92.04
2023-03-06T01:40:08.483Z,91.93
2023-03-06T01:42:36.342Z,92.06
2023-03-06T01:45:07.530Z,92.54
2023-03-06T01:47:36.272Z,92.39
2023-03-06T01:50:04.970Z,93.02
2023-03-06T01:52:35.434Z,93.05
2023-03-06T01:55:07.767Z,92.95
2023-03-06T01:57:37.398Z,92.93
2023-03-06T02:00:09.899Z,92.90
2023-03-06T02:02:47.004Z,93.35
2023-03-06T02:05:14.877Z,92.55
2023-03-06T02:07:43.695Z,92.92
2023-03-06T02:10:17.661Z,93.40
2023-03-06T02:12:46.339Z,93.86
2023-03-06T02:15:16.662Z,93.54
2023-03-06T02:17:46.193Z,93.55
2023-03-06T02:20:17.832Z,93.94
2023-03-06T02:22:51.198Z,93.54
2023-03-06T02:25:34.011Z,93.25
2023-03-06T02:28:02.286Z,92.99
2023-03-06T02:30:30.690Z,93.55
2023-03-06T02:32:58.527Z,93.25
2023-03-06T02:35:27.782Z,93.79
2023-03-06T02:37:57.090Z,92.77
2023-03-06T02:40:25.797Z,93.42
2023-03-06T02:42:58.019Z,93.00
2023-03-06T02:45:31.523Z,93.10
2023-03-06T02:47:59.385Z,92.59
2023-03-06T02:50:27.148Z,92.64
2023-03-06T02:52:55.013Z,92.45
2023-03-06T02:55:22.878Z,92.53
2023-03-06T02:57:50.765Z,91.97
2023-03-06T03:00:22.046Z,91.74
2023-03-06T03:02:50.019Z,92.06
2023-03-06T03:05:17.981Z,92.16
2023-03-06T03:07:49.859Z,91.84
2023-03-06T03:10:18.208Z,91.94
2023-03-06T03:12:46.695Z,90.96
2023-03-06T03:15:15.121Z,91.66
2023-03-06T03:17:44.359Z,91.55
2023-03-06T03:20:15.504Z,91.78
2023-03-06T03:22:43.357Z,91.01
2023-03-06T03:25:11.966Z,90.90
2023-03-06T03:27:39.753Z,90.89
2023-03-06T03:30:09.997Z,90.56
2023-03-06T03:32:38.622Z,91.07
2023-03-06T03:35:09.858Z,90.42
2023-03-06T03:37:38.007Z,89.73
2023-03-06T03:40:07.851Z,89.63
2023-03-06T03:42:35.820Z,89.27
2023-03-06T03:45:04.239Z,89.09
2023-03-06T03:47:32.146Z,89.26
2023-03-06T03:50:01.190Z,88.89
2023-03-06T03:52:30.662Z,88.81
2023-03-06T03:54:58.591Z,88.68
2023-03-06T03:57:28.046Z,89.20
2023-03-06T03:59:57.352Z,89.11
2023-03-06T04:02:41.610Z,89.35
2023-03-06T04:05:21.651Z,89.12
2023-03-06T04:07:51.040Z,89.94
2023-03-06T04:10:20.216Z,89.36
2023-03-06T04:12:48.077Z,89.80
2023-03-06T04:15:16.335Z,90.39
2023-03-06T04:17:46.956Z,89.97
2023-03-06T04:20:18.862Z,90.08
2023-03-06T04:22:48.088Z,89.96
2023-03-06T04:25:18.759Z,89.83
2023-03-06T04:27:46.902Z,89.72
2023-03-06T04:30:15.235Z,89.84
2023-03-06T04:32:43.206Z,89.50
2023-03-06T04:35:11.337Z,90.00
2023-03-06T04:37:48.595Z,89.92
2023-03-06T04:40:20.320Z,89.51
2023-03-06T04:42:48.435Z,89.98
2023-03-06T04:45:16.853Z,89.20
2023-03-06T04:47:44.676Z,89.24
2023-03-06T04:50:12.899Z,89.72
2023-03-06T04:52:41.350Z,89.83
2023-03-06T04:55:11.023Z,89.33
2023-03-06T04:57:41.652Z,88.80
2023-03-06T05:00:13.091Z,89.59
2023-03-06T05:02:42.455Z,89.90
2023-03-06T05:05:13.257Z,89.91
2023-03-06T05:07:41.192Z,89.25
2023-03-06T05:10:13.724Z,89.60
2023-03-06T05:12:42.930Z,88.89
2023-03-06T05:15:12.817Z,89.92
2023-03-06T05:17:40.718Z,89.98
2023-03-06T05:20:10.615Z,89.72
2023-03-06T05:22:38.506Z,89.04
2023-03-06T05:25:07.369Z,89.30
2023-03-06T05:27:35.663Z,89.16
2023-03-06T05:30:05.643Z,89.83
2023-03-06T05:32:35.562Z,89.02
2023-03-06T05:35:03.886Z,89.04
2023-03-06T05:37:31.804Z,88.95
2023-03-06T05:39:59.767Z,88.89
2023-03-06T05:42:28.776Z,89.21
2023-03-06T05:44:56.584Z,89.82
2023-03-06T05:47:25.720Z,88.61
2023-03-06T05:49:53.514Z,88.90
2023-03-06T05:52:21.312Z,88.80
2023-03-06T05:54:51.096Z,90.32
2023-03-06T05:57:20.243Z,89.75
2023-03-06T05:59:48.224Z,90.24
2023-03-06T06:02:16.598Z,89.03
2023-03-06T06:04:45.945Z,89.12
2023-03-06T06:07:14.780Z,88.34
2023-03-06T06:09:43.375Z,88.66
2023-03-06T06:12:11.188Z,89.02
2023-03-06T06:14:39.027Z,89.29
2023-03-06T06:17:07.029Z,89.71
2023-03-06T06:19:34.856Z,89.59
2023-03-06T06:22:04.173Z,89.14
2023-03-06T06:24:32.860Z,88.71
2023-03-06T06:27:03.391Z,89.02
2023-03-06T06:29:31.917Z,88.84
2023-03-06T06:32:00.160Z,88.68
2023-03-06T06:34:29.031Z,88.42
2023-03-06T06:36:56.959Z,89.77
2023-03-06T06:39:26.310Z,89.49
2023-03-06T06:42:26.148Z,89.61
2023-03-06T06:44:41.802Z,89.18
2023-03-06T06:47:22.434Z,88.52
2023-03-06T06:49:52.774Z,88.43
2023-03-06T06:52:20.754Z,88.49
2023-03-06T06:54:50.096Z,88.75
2023-03-06T06:57:18.189Z,88.92
2023-03-06T06:59:45.982Z,87.74
2023-03-06T07:02:14.099Z,88.34
2023-03-06T07:04:56.224Z,88.57
2023-03-06T07:07:30.188Z,88.62
2023-03-06T07:09:59.289Z,89.08
2023-03-06T07:12:27.152Z,89.21
2023-03-06T07:14:54.921Z,89.60
2023-03-06T07:17:22.674Z,88.99
2023-03-06T07:19:50.577Z,89.09
2023-03-06T07:22:18.414Z,89.63
2023-03-06T07:28:54.036Z,87.67
2023-03-06T07:31:23.169Z,87.74
2023-03-06T07:33:51.508Z,87.67
2023-03-06T07:36:19.551Z,87.43
2023-03-06T07:38:47.445Z,87.26
2023-03-06T07:41:16.467Z,87.54
2023-03-06T07:43:45.395Z,86.70
2023-03-06T07:46:16.842Z,86.21
2023-03-06T07:48:45.447Z,87.09
2023-03-06T07:51:15.974Z,87.08
2023-03-06T07:53:43.994Z,86.20
2023-03-06T07:56:12.194Z,85.53
2023-03-06T07:58:41.469Z,86.18
2023-03-06T08:01:13.733Z,85.96
2023-03-06T08:03:43.086Z,85.56
2023-03-06T08:06:12.504Z,85.25
2023-03-06T08:08:41.740Z,85.76
2023-03-06T08:11:10.801Z,85.37
2023-03-06T08:13:39.494Z,84.85
2023-03-06T08:16:08.461Z,84.05
2023-03-06T08:18:36.530Z,83.91
2023-03-06T08:21:07.282Z,84.05
2023-03-06T08:23:35.781Z,83.05
2023-03-06T08:26:05.475Z,84.23
2023-03-06T08:28:33.723Z,84.31
2023-03-06T08:31:09.774Z,82.99
2023-03-06T08:33:37.742Z,82.93
2023-03-06T08:36:07.473Z,82.80
2023-03-06T08:38:35.239Z,82.64
2023-03-06T08:41:03.046Z,83.28
2023-03-06T08:43:30.873Z,83.19
2023-03-06T08:45:59.829Z,82.97
2023-03-06T08:48:27.758Z,81.39
2023-03-06T08:50:55.819Z,82.97
2023-03-06T08:53:40.479Z,82.43
2023-03-06T08:56:16.178Z,81.25
2023-03-06T08:58:43.995Z,82.30
2023-03-06T09:01:14.798Z,81.85
2023-03-06T09:03:42.594Z,81.82
2023-03-06T09:06:10.666Z,80.15
2023-03-06T09:08:42.990Z,80.06
2023-03-06T09:11:11.095Z,80.94
2023-03-06T09:13:39.028Z,81.50
2023-03-06T09:16:08.403Z,80.23
2023-03-06T09:18:36.198Z,79.78
2023-03-06T09:21:04.421Z,77.75
2023-03-06T09:23:32.536Z,78.68
2023-03-06T09:26:02.560Z,78.10
2023-03-06T09:28:30.569Z,78.21
2023-03-06T09:30:59.735Z,78.15
2023-03-06T09:33:28.678Z,78.04
2023-03-06T09:35:57.635Z,80.06
2023-03-06T09:38:27.180Z,79.52
2023-03-06T09:41:09.835Z,80.04
2023-03-06T09:43:39.638Z,79.37
2023-03-06T09:46:10.664Z,78.26
2023-03-06T09:48:43.171Z,77.74
2023-03-06T09:51:14.454Z,78.83
2023-03-06T09:53:57.461Z,78.99
2023-03-06T09:56:31.011Z,78.23
2023-03-06T09:59:07.163Z,77.72
2023-03-06T10:01:37.189Z,77.03
2023-03-06T10:04:11.069Z,77.01
2023-03-06T10:06:46.190Z,76.56
2023-03-06T10:09:17.012Z,76.72
2023-03-06T10:11:49.326Z,76.52
2023-03-06T10:14:22.313Z,78.14
2023-03-06T10:16:50.249Z,77.60
2023-03-06T10:19:19.718Z,77.80
2023-03-06T10:21:55.156Z,79.01
2023-03-06T10:24:34.705Z,78.81
2023-03-06T10:27:17.091Z,79.43
2023-03-06T10:30:02.076Z,79.34
2023-03-06T10:32:47.480Z,77.27
2023-03-06T10:35:19.101Z,78.54
2023-03-06T10:37:46.983Z,78.36
2023-03-06T10:40:17.998Z,78.91
2023-03-06T10:42:52.117Z,78.48
2023-03-06T10:45:24.012Z,78.46
2023-03-06T10:47:51.798Z,78.99
2023-03-06T10:50:25.137Z,79.45
2023-03-06T10:53:01.902Z,78.71
2023-03-06T10:55:31.438Z,76.81
2023-03-06T10:58:18.363Z,76.88
2023-03-06T11:00:46.212Z,77.97
2023-03-06T11:03:19.076Z,77.58
2023-03-06T11:06:04.782Z,79.36
2023-03-06T11:08:32.978Z,79.69
2023-03-06T11:11:02.845Z,80.03
2023-03-06T11:13:33.640Z,80.35
2023-03-06T11:16:05.035Z,80.13
2023-03-06T11:18:37.277Z,80.50
2023-03-06T11:21:09.036Z,79.53
2023-03-06T11:23:42.695Z,79.99
2023-03-06T11:26:30.369Z,79.42
2023-03-06T11:29:14.510Z,77.73
2023-03-06T11:31:46.984Z,78.36
2023-03-06T11:34:19.772Z,77.54
2023-03-06T11:36:50.849Z,77.91
2023-03-06T11:39:25.698Z,77.28
2023-03-06T11:41:58.907Z,76.40
2023-03-06T11:44:36.092Z,75.03
2023-03-06T11:47:10.142Z,76.31
2023-03-06T11:49:41.745Z,74.79
2023-03-06T11:52:16.087Z,75.17
2023-03-06T11:54:43.850Z,74.88
2023-03-06T11:57:17.114Z,74.42
2023-03-06T11:59:55.344Z,73.49
2023-03-06T12:02:34.403Z,71.85
2023-03-06T12:05:10.765Z,71.57
2023-03-06T12:07:46.107Z,72.84
2023-03-06T12:10:18.882Z,72.11
2023-03-06T12:12:59.759Z,72.44
2023-03-06T12:15:43.813Z,72.72
2023-03-06T12:18:23.075Z,72.50
2023-03-06T12:20:59.854Z,73.26
2023-03-06T12:23:43.899Z,70.65
2023-03-06T12:26:25.181Z,69.73
2023-03-06T12:29:12.621Z,69.43
2023-03-06T12:31:49.401Z,70.21
2023-03-06T12:34:29.114Z,67.22
2023-03-06T12:37:04.399Z,67.77
2023-03-06T12:39:43.196Z,68.23
2023-03-06T12:42:24.528Z,69.15
2023-03-06T12:45:23.253Z,68.74
2023-03-06T12:47:56.341Z,68.86
2023-03-06T12:50:27.332Z,68.78
2023-03-06T12:52:56.594Z,68.08
2023-03-06T12:55:26.055Z,69.25
2023-03-06T12:57:54.127Z,68.51
2023-03-06T13:01:04.880Z,68.41
2023-03-06T13:03:44.766Z,68.19
2023-03-06T13:06:51.669Z,67.59
2023-03-06T13:09:21.437Z,65.49
2023-03-06T13:12:09.368Z,64.88
2023-03-06T13:14:57.276Z,65.09
2023-03-06T13:17:37.253Z,64.25
2023-03-06T13:20:44.593Z,62.41
2023-03-06T13:24:01.122Z,62.84
2023-03-06T13:26:52.502Z,61.76
2023-03-06T13:29:59.947Z,59.69
2023-03-06T13:32:33.224Z,59.14
2023-03-06T13:35:01.181Z,60.51
2023-03-06T13:37:53.881Z,60.57
2023-03-06T13:40:33.425Z,59.76
2023-03-06T13:43:18.110Z,57.62
2023-03-06T13:45:47.501Z,56.21
2023-03-06T13:48:43.213Z,57.70
2023-03-06T13:51:17.478Z,57.07
2023-03-06T13:54:21.415Z,59.32
2023-03-06T13:57:04.562Z,60.26
2023-03-06T14:00:12.169Z,59.78
2023-03-06T14:03:09.668Z,57.37
2023-03-06T14:05:43.278Z,59.15
2023-03-06T14:08:13.825Z,59.68
2023-03-06T14:10:42.018Z,57.23
2023-03-06T14:13:17.145Z,58.22
2023-03-06T14:15:48.856Z,60.01
2023-03-06T14:18:25.145Z,59.63
2023-03-06T14:20:56.408Z,59.89
2023-03-06T14:23:27.299Z,60.29
2023-03-06T14:26:06.386Z,59.57
2023-03-06T14:28:35.654Z,59.04
2023-03-06T14:31:06.033Z,59.89
2023-03-06T14:33:41.100Z,59.80
2023-03-06T14:36:14.726Z,59.78
2023-03-06T14:38:45.393Z,58.90
2023-03-06T14:41:14.264Z,58.29
2023-03-06T14:43:42.242Z,57.46
2023-03-06T14:46:19.971Z,58.09
2023-03-06T14:48:50.057Z,58.09
2023-03-06T14:51:19.560Z,59.62
2023-03-06T14:53:48.798Z,59.76
2023-03-06T14:56:19.428Z,59.11
2023-03-06T14:58:55.224Z,57.52
2023-03-06T15:01:30.270Z,56.74
2023-03-06T15:04:02.705Z,56.85
2023-03-06T15:06:34.399Z,57.97
2023-03-06T15:09:07.469Z,58.66
2023-03-06T15:11:56.493Z,57.67
2023-03-06T15:14:31.175Z,58.44
2023-03-06T15:17:21.028Z,57.56
2023-03-06T15:19:51.502Z,58.20
2023-03-06T15:22:31.336Z,59.12
2023-03-06T15:25:26.928Z,58.27
2023-03-06T15:27:56.898Z,58.60
2023-03-06T15:30:27.967Z,57.62
2023-03-06T15:33:24.978Z,55.37
2023-03-06T15:35:56.951Z,55.44
2023-03-06T15:38:27.507Z,55.43
2023-03-06T15:40:57.028Z,55.99
2023-03-06T15:43:25.797Z,55.38
2023-03-06T15:45:59.232Z,56.00
2023-03-06T15:48:27.465Z,57.57
2023-03-06T15:50:57.064Z,58.17
2023-03-06T15:53:25.002Z,57.05
2023-03-06T15:55:53.282Z,56.54
2023-03-06T15:58:26.630Z,56.64
2023-03-06T16:00:54.588Z,56.14
2023-03-06T16:03:22.595Z,57.05
2023-03-06T16:05:50.453Z,57.57
2023-03-06T16:08:19.772Z,57.88
2023-03-06T16:10:47.863Z,58.93
2023-03-06T16:13:17.666Z,58.10
2023-03-06T16:15:48.487Z,58.57
2023-03-06T16:18:16.425Z,58.12
2023-03-06T16:20:44.263Z,58.47
2023-03-06T16:23:12.406Z,58.24
2023-03-06T16:25:43.045Z,58.88
2023-03-06T16:28:12.430Z,59.28
2023-03-06T16:30:40.401Z,58.74
2023-03-06T16:33:10.301Z,59.48
2023-03-06T16:35:38.240Z,59.88
2023-03-06T16:38:07.079Z,59.95
2023-03-06T16:40:41.111Z,60.15
2023-03-06T16:43:15.534Z,60.49
2023-03-06T16:45:44.003Z,60.85
2023-03-06T16:48:15.165Z,61.28
2023-03-06T16:50:43.052Z,61.25
2023-03-06T16:53:10.908Z,61.58
2023-03-06T16:55:38.756Z,61.64
2023-03-06T16:58:08.579Z,60.71
2023-03-06T17:00:37.796Z,60.75
2023-03-06T17:03:05.614Z,61.99
2023-03-06T17:05:35.070Z,61.97
2023-03-06T17:08:03.606Z,61.41
2023-03-06T17:10:31.934Z,62.41
2023-03-06T17:13:00.645Z,62.21
2023-03-06T17:15:28.662Z,61.68
2023-03-06T17:17:58.848Z,63.31
2023-03-06T17:20:26.717Z,65.37
2023-03-06T17:22:54.855Z,66.91
2023-03-06T17:25:22.798Z,67.91
2023-03-06T17:27:50.886Z,69.10
2023-03-06T17:30:18.829Z,69.75
2023-03-06T17:32:47.404Z,70.06
2023-03-06T17:35:16.924Z,71.33
2023-03-06T17:37:44.798Z,71.21
2023-03-06T17:40:15.548Z,71.57
2023-03-06T17:42:43.593Z,72.58
2023-03-06T17:45:12.219Z,72.22
2023-03-06T17:47:40.238Z,72.16
2023-03-06T17:50:08.688Z,73.10
2023-03-06T17:52:38.900Z,73.16
2023-03-06T17:55:08.013Z,74.17
2023-03-06T17:57:35.897Z,73.90
2023-03-06T18:00:05.793Z,74.89
2023-03-06T18:02:40.649Z,75.33
2023-03-06T18:05:10.052Z,75.67
2023-03-06T18:07:40.060Z,76.67
2023-03-06T18:10:08.588Z,76.47
2023-03-06T18:12:36.387Z,76.75
2023-03-06T18:15:05.536Z,78.10
2023-03-06T18:17:33.730Z,78.20
2023-03-06T18:20:01.664Z,79.42
2023-03-06T18:22:29.588Z,80.22
2023-03-06T18:24:58.821Z,80.30
2023-03-06T18:27:26.735Z,80.11
2023-03-06T18:29:55.521Z,80.56
2023-03-06T18:32:23.340Z,81.22
2023-03-06T18:34:51.627Z,81.25
2023-03-06T18:37:19.833Z,81.60
2023-03-06T18:39:47.834Z,80.77
2023-03-06T18:42:17.032Z,81.54
2023-03-06T18:44:47.639Z,81.11
2023-03-06T18:47:15.797Z,81.41
2023-03-06T18:49:44.878Z,82.24
2023-03-06T18:52:13.151Z,82.08
2023-03-06T18:54:41.043Z,82.03
2023-03-06T18:57:11.125Z,82.12
2023-03-06T18:59:40.301Z,82.25
2023-03-06T19:02:08.495Z,82.64
2023-03-06T19:04:37.760Z,82.78
2023-03-06T19:07:05.810Z,82.96
2023-03-06T19:09:33.612Z,82.53
2023-03-06T19:12:03.375Z,83.16
2023-03-06T19:14:31.336Z,83.40
2023-03-06T19:17:00.514Z,83.35
2023-03-06T19:19:29.261Z,83.61
2023-03-06T19:21:58.500Z,83.26
2023-03-06T19:24:26.628Z,83.41
2023-03-06T19:26:54.366Z,83.87
2023-03-06T19:29:22.248Z,83.62
2023-03-06T19:31:50.856Z,83.58
2023-03-06T19:34:20.236Z,84.57
2023-03-06T19:36:50.907Z,84.09
2023-03-06T19:39:18.825Z,84.01
2023-03-06T19:41:47.426Z,84.25
2023-03-06T19:44:16.143Z,84.26
2023-03-06T19:46:44.382Z,83.73
2023-03-06T19:49:16.578Z,84.65
2023-03-06T19:51:45.733Z,84.07
2023-03-06T19:54:14.026Z,84.30
2023-03-06T19:56:41.801Z,84.11
2023-03-06T19:59:09.613Z,84.30
2023-03-06T20:01:38.466Z,84.05
2023-03-06T20:04:06.410Z,84.74
2023-03-06T20:06:36.624Z,84.57
2023-03-06T20:09:08.018Z,84.94
2023-03-06T20:11:35.936Z,84.52
2023-03-06T20:14:05.913Z,84.79
2023-03-06T20:16:34.594Z,84.38
2023-03-06T20:19:02.905Z,85.08
2023-03-06T20:21:32.336Z,84.52
2023-03-06T20:24:00.186Z,84.28
2023-03-06T20:26:31.114Z,85.20
2023-03-06T20:28:59.116Z,84.65
2023-03-06T20:31:28.590Z,84.71
2023-03-06T20:33:58.393Z,85.21
2023-03-06T20:36:28.740Z,85.45
2023-03-06T20:38:56.917Z,85.54
2023-03-06T20:41:26.108Z,85.02
2023-03-06T20:43:55.751Z,85.92
2023-03-06T20:46:24.338Z,86.00
2023-03-06T20:48:54.051Z,85.23
2023-03-06T20:51:24.184Z,85.76
2023-03-06T20:53:53.940Z,86.06
2023-03-06T20:56:24.109Z,85.85
2023-03-06T20:58:51.914Z,86.82
2023-03-06T21:01:22.510Z,86.47
2023-03-06T21:03:50.346Z,87.51
2023-03-06T21:06:18.660Z,87.48
2023-03-06T21:08:46.574Z,87.84
2023-03-06T21:11:14.823Z,87.61
2023-03-06T21:13:42.716Z,88.15
2023-03-06T21:16:12.614Z,87.82
2023-03-06T21:18:41.810Z,88.23
2023-03-06T21:21:11.552Z,88.36
2023-03-06T21:23:39.954Z,88.67
2023-03-06T21:26:07.905Z,87.80
2023-03-06T21:28:35.746Z,88.50
2023-03-06T21:31:04.107Z,87.80
2023-03-06T21:33:31.954Z,87.76
2023-03-06T21:36:01.201Z,88.64
2023-03-06T21:38:29.139Z,88.61
2023-03-06T21:40:57.119Z,88.48
2023-03-06T21:43:24.858Z,88.29
2023-03-06T21:45:57.344Z,88.14
2023-03-06T21:48:25.318Z,88.44
2023-03-06T21:50:53.139Z,88.21
2023-03-06T21:53:22.328Z,88.74
2023-03-06T21:55:50.057Z,88.77
2023-03-06T21:58:17.792Z,88.46
2023-03-06T22:00:45.717Z,88.73
2023-03-06T22:03:13.496Z,88.71
2023-03-06T22:05:41.782Z,88.44
2023-03-06T22:08:09.637Z,87.75
2023-03-06T22:10:40.784Z,87.70
2023-03-06T22:13:08.595Z,87.90
2023-03-06T22:15:36.524Z,87.89
2023-03-06T22:18:04.547Z,87.90
2023-03-06T22:20:32.338Z,87.53
2023-03-06T22:23:00.189Z,88.19
2023-03-06T22:25:28.018Z,88.17
2023-03-06T22:27:57.166Z,88.02
2023-03-06T22:30:24.994Z,87.85
2023-03-06T22:32:53.613Z,88.77
2023-03-06T22:35:21.422Z,88.33
2023-03-06T22:37:49.662Z,88.80
2023-03-06T22:40:17.969Z,88.45
2023-03-06T22:42:45.813Z,87.90
2023-03-06T22:45:15.047Z,88.38
2023-03-06T22:47:43.090Z,88.89
2023-03-06T22:50:12.174Z,88.20
2023-03-06T22:52:40.072Z,88.48
2023-03-06T22:55:08.721Z,88.17
2023-03-06T22:57:36.537Z,88.33
2023-03-06T23:00:05.194Z,89.12
2023-03-06T23:02:35.305Z,88.96
2023-03-06T23:05:03.663Z,88.96
2023-03-06T23:07:31.425Z,89.49
2023-03-06T23:10:02.126Z,89.47
2023-03-06T23:12:48.842Z,89.50
2023-03-06T23:15:36.804Z,89.29
2023-03-06T23:18:26.900Z,89.71
2023-03-06T23:21:15.134Z,89.70
2023-03-06T23:24:02.377Z,90.30
2023-03-06T23:26:31.415Z,90.10
2023-03-06T23:28:59.250Z,90.19
2023-03-06T23:31:29.409Z,90.21
2023-03-06T23:34:00.728Z,90.30
2023-03-06T23:36:29.121Z,90.69
2023-03-06T23:38:56.945Z,89.52
2023-03-06T23:41:24.898Z,88.87
2023-03-06T23:43:55.052Z,89.62
2023-03-06T23:46:23.819Z,90.16
2023-03-06T23:48:51.660Z,89.73
2023-03-06T23:51:22.632Z,90.13
2023-03-06T23:53:55.122Z,89.68
2023-03-06T23:56:23.092Z,89.64
2023-03-06T23:58:53.056Z,89.49
